Time;durP1;ratioP1;P1;durP2;ratioP2;P2;SDS_P1;SDS_P2;PMS_P1;PMS_P2;Temp;Humidity;BMP_temperature;BMP_pressure;BME280_temperature;BME280_humidity;BME280_pressure;Samples;Min_cycle;Max_cycle;Signal;HPM_P1;HPM_P2
2022/09/13 00:00:51;;;;;;;1.90;1.10;;;11.00;99.90;;;;;;6230817;23;20332;-76
2022/09/13 00:03:17;;;;;;;2.75;1.13;;;11.10;99.90;;;;;;6232536;23;20361;-76
2022/09/13 00:05:43;;;;;;;1.60;1.02;;;11.10;99.90;;;;;;6236214;23;20031;-70
2022/09/13 00:08:09;;;;;;;1.20;0.85;;;11.00;99.90;;;;;;6230146;23;20007;-76
2022/09/13 00:10:37;;;;;;;2.42;1.20;;;11.00;99.90;;;;;;6233933;23;20016;-76
2022/09/13 00:13:04;;;;;;;3.22;1.17;;;11.00;99.90;;;;;;6231442;23;20080;-76
2022/09/13 00:15:30;;;;;;;1.08;0.95;;;11.00;99.90;;;;;;6232401;23;20150;-76
2022/09/13 00:17:56;;;;;;;1.35;1.17;;;11.00;99.90;;;;;;6229866;23;20084;-76
2022/09/13 00:20:21;;;;;;;1.85;1.02;;;11.00;99.90;;;;;;6233679;23;20024;-76
2022/09/13 00:22:47;;;;;;;1.58;0.80;;;11.00;99.90;;;;;;6235103;23;20513;-76
2022/09/13 00:25:13;;;;;;;0.90;0.90;;;11.00;99.90;;;;;;6232605;23;20004;-76
2022/09/13 00:27:38;;;;;;;2.78;0.90;;;11.00;99.90;;;;;;6233917;23;20358;-76
2022/09/13 00:30:06;;;;;;;2.85;1.15;;;10.90;99.90;;;;;;6232606;23;20650;-76
2022/09/13 00:32:33;;;;;;;1.00;0.90;;;10.80;99.90;;;;;;6232513;23;20019;-76
2022/09/13 00:34:59;;;;;;;1.05;0.95;;;10.70;99.90;;;;;;6233310;23;20015;-76
2022/09/13 00:37:25;;;;;;;1.83;0.90;;;10.70;99.90;;;;;;6234065;23;20139;-76
2022/09/13 00:39:50;;;;;;;0.90;0.90;;;10.70;99.90;;;;;;6234005;23;20180;-76
2022/09/13 00:42:16;;;;;;;1.15;0.90;;;10.80;99.90;;;;;;6234717;23;20680;-76
2022/09/13 00:44:56;;;;;;;1.10;1.00;;;10.80;99.90;;;;;;6236691;23;20004;-76
2022/09/13 00:47:43;;;;;;;1.55;1.00;;;10.80;99.90;;;;;;6236735;23;20087;-76
2022/09/13 00:50:20;;;;;;;1.88;1.10;;;10.80;99.90;;;;;;6235500;23;20044;-76
2022/09/13 00:52:56;;;;;;;1.08;0.65;;;10.90;99.90;;;;;;6236844;23;20012;-76
2022/09/13 00:55:37;;;;;;;1.00;0.90;;;10.90;99.90;;;;;;6235490;23;20004;-75
2022/09/13 00:58:09;;;;;;;2.42;1.00;;;10.80;99.90;;;;;;6236586;23;20008;-76
2022/09/13 01:00:35;;;;;;;;;;;10.80;99.90;;;;;;6234981;23;20000;-76
2022/09/13 01:03:05;;;;;;;1.77;0.90;;;10.70;99.90;;;;;;6230030;23;19903;-71
2022/09/13 01:05:37;;;;;;;3.70;1.20;;;10.70;99.90;;;;;;6232538;23;20066;-76
2022/09/13 01:08:11;;;;;;;0.85;0.85;;;10.80;99.90;;;;;;6231993;23;20380;-76
2022/09/13 01:10:39;;;;;;;0.88;0.88;;;10.80;99.90;;;;;;6234281;23;20337;-76
2022/09/13 01:13:13;;;;;;;2.30;1.05;;;10.90;99.90;;;;;;6234168;23;20088;-76
2022/09/13 01:15:42;;;;;;;2.58;1.13;;;11.00;99.90;;;;;;6235476;23;20000;-76
2022/09/13 01:18:09;;;;;;;3.20;0.93;;;11.00;99.90;;;;;;6229182;23;20000;-75
2022/09/13 01:20:57;;;;;;;1.45;1.10;;;11.00;99.90;;;;;;6234309;23;20035;-76
2022/09/13 01:23:25;;;;;;;1.70;0.85;;;11.10;99.90;;;;;;6236877;23;20311;-76
2022/09/13 01:26:19;;;;;;;1.95;0.90;;;11.10;99.90;;;;;;6236081;23;20008;-75
2022/09/13 01:29:10;;;;;;;3.25;1.48;;;11.00;99.90;;;;;;6237194;23;20011;-75
2022/09/13 01:31:45;;;;;;;1.87;1.20;;;10.70;99.90;;;;;;6232773;23;20070;-75
2022/09/13 01:34:47;;;;;;;1.33;1.23;;;10.50;99.90;;;;;;6233387;23;20089;-75
2022/09/13 01:37:30;;;;;;;2.17;1.30;;;10.40;99.90;;;;;;6233478;23;20026;-75
2022/09/13 01:40:03;;;;;;;3.42;1.23;;;10.40;99.90;;;;;;6232685;23;20346;-75
2022/09/13 01:42:59;;;;;;;2.92;1.40;;;10.30;99.90;;;;;;6235656;23;20534;-71
2022/09/13 01:45:45;;;;;;;7.00;1.50;;;10.20;99.90;;;;;;6232390;23;20008;-71
2022/09/13 01:48:30;;;;;;;1.45;1.17;;;10.20;99.90;;;;;;6235406;23;20026;-71
2022/09/13 01:51:08;;;;;;;1.65;1.52;;;10.00;99.90;;;;;;6234803;23;20085;-71
2022/09/13 01:53:44;;;;;;;2.47;1.40;;;9.90;99.90;;;;;;6235859;23;20030;-71
2022/09/13 01:56:16;;;;;;;3.85;1.25;;;9.80;99.90;;;;;;6233684;23;20610;-71
2022/09/13 01:58:56;;;;;;;1.52;1.23;;;9.80;99.90;;;;;;6236804;23;20001;-71
2022/09/13 02:01:34;;;;;;;1.48;1.02;;;9.80;99.90;;;;;;6205675;23;20004;-71
2022/09/13 02:04:08;;;;;;;1.50;1.40;;;9.80;99.90;;;;;;6205706;23;20012;-72
2022/09/13 02:06:39;;;;;;;2.25;1.35;;;9.80;99.90;;;;;;6234986;23;20011;-72
2022/09/13 02:09:18;;;;;;;1.38;1.27;;;9.80;99.90;;;;;;6231844;23;20022;-72
2022/09/13 02:11:49;;;;;;;2.13;1.13;;;9.80;99.90;;;;;;6206877;23;20011;-72
2022/09/13 02:14:19;;;;;;;4.28;1.63;;;9.80;99.90;;;;;;6236834;23;20005;-72
2022/09/13 02:16:51;;;;;;;1.25;1.15;;;9.80;99.90;;;;;;6233688;23;20090;-72
2022/09/13 02:19:39;;;;;;;1.27;1.17;;;9.70;99.90;;;;;;6233705;23;20002;-71
2022/09/13 02:22:07;;;;;;;1.60;1.50;;;9.70;99.90;;;;;;6233039;23;20082;-71
2022/09/13 02:24:44;;;;;;;1.92;1.02;;;9.70;99.90;;;;;;6236262;23;20004;-71
2022/09/13 02:27:13;;;;;;;1.35;1.20;;;9.60;99.90;;;;;;6208180;23;20023;-71
2022/09/13 02:29:44;;;;;;;1.60;1.30;;;9.60;99.90;;;;;;6207056;23;20430;-71
2022/09/13 02:32:31;;;;;;;1.45;1.30;;;9.50;99.90;;;;;;6232220;23;20004;-71
2022/09/13 02:35:06;;;;;;;1.27;1.17;;;9.50;99.90;;;;;;6234361;23;20326;-72
2022/09/13 02:37:34;;;;;;;1.95;1.38;;;9.40;99.90;;;;;;6232652;23;20337;-71
2022/09/13 02:40:14;;;;;;;2.53;1.40;;;9.50;99.90;;;;;;6233264;23;20825;-76
2022/09/13 02:42:50;;;;;;;2.65;1.40;;;9.50;99.90;;;;;;6232267;23;20377;-76
2022/09/13 02:45:20;;;;;;;1.98;1.38;;;9.50;99.90;;;;;;6230252;23;20007;-76
2022/09/13 02:47:57;;;;;;;1.40;1.30;;;9.40;99.90;;;;;;6230100;23;20504;-76
2022/09/13 02:50:58;;;;;;;1.52;1.30;;;9.40;99.90;;;;;;6232375;23;20441;-76
2022/09/13 02:53:42;;;;;;;1.60;1.40;;;9.40;99.90;;;;;;6207095;23;20012;-76
2022/09/13 02:56:26;;;;;;;1.80;1.52;;;9.50;99.90;;;;;;6229930;23;20004;-76
2022/09/13 02:59:08;;;;;;;1.52;1.42;;;9.50;99.90;;;;;;6233733;23;20007;-71
2022/09/13 03:01:36;;;;;;;1.52;1.35;;;9.60;99.90;;;;;;6231336;23;20001;-71
2022/09/13 03:04:02;;;;;;;2.78;1.23;;;9.60;99.90;;;;;;6230040;23;20000;-72
2022/09/13 03:06:29;;;;;;;3.60;1.70;;;9.60;99.90;;;;;;6203623;23;20004;-72
2022/09/13 03:08:58;;;;;;;2.03;1.40;;;9.50;99.90;;;;;;6204739;23;20008;-72
2022/09/13 03:11:30;;;;;;;3.53;1.20;;;9.40;99.90;;;;;;6231698;23;20022;-72
2022/09/13 03:14:12;;;;;;;2.63;1.15;;;9.40;99.90;;;;;;6230112;23;20008;-72
2022/09/13 03:16:59;;;;;;;1.80;1.13;;;9.40;99.90;;;;;;6229309;23;20015;-72
2022/09/13 03:20:03;;;;;;;2.13;1.30;;;9.40;99.90;;;;;;6229539;23;20015;-72
2022/09/13 03:22:37;;;;;;;1.40;1.17;;;9.40;99.90;;;;;;6078888;23;20043;-71
2022/09/13 03:25:24;;;;;;;2.30;1.48;;;9.30;99.90;;;;;;6208588;23;20032;-72
2022/09/13 03:28:13;;;;;;;2.17;1.25;;;9.20;99.90;;;;;;6229677;23;20035;-72
2022/09/13 03:30:48;;;;;;;1.50;1.30;;;9.30;99.90;;;;;;6233665;23;20020;-72
2022/09/13 03:33:47;;;;;;;0.98;0.82;;;9.30;99.90;;;;;;6215648;23;20020;-72
2022/09/13 03:36:24;;;;;;;1.88;1.70;;;9.20;99.90;;;;;;6231426;23;20571;-72
2022/09/13 03:39:15;;;;;;;1.38;1.27;;;9.10;99.90;;;;;;6235368;23;20004;-72
2022/09/13 03:41:47;;;;;;;1.30;1.20;;;9.10;99.90;;;;;;6235695;23;20004;-71
2022/09/13 03:44:15;;;;;;;2.27;1.40;;;8.90;99.90;;;;;;6234422;23;20015;-71
2022/09/13 03:46:44;;;;;;;1.10;1.00;;;8.60;99.90;;;;;;6232804;23;20005;-71
2022/09/13 03:49:14;;;;;;;1.08;0.77;;;8.40;99.90;;;;;;6232297;23;20068;-72
2022/09/13 03:51:40;;;;;;;1.75;0.98;;;8.40;99.90;;;;;;6234792;23;20019;-71
2022/09/13 03:54:13;;;;;;;1.02;0.95;;;8.40;99.90;;;;;;6234606;23;20004;-71
2022/09/13 03:56:39;;;;;;;2.53;1.10;;;8.40;99.90;;;;;;6234723;23;20004;-76
2022/09/13 03:59:04;;;;;;;1.42;0.95;;;8.40;99.90;;;;;;6234498;23;20010;-76
2022/09/13 04:01:30;;;;;;;2.92;0.90;;;8.40;99.90;;;;;;6233895;23;20036;-76
2022/09/13 04:03:55;;;;;;;1.63;1.20;;;8.50;99.90;;;;;;6231234;23;20058;-76
2022/09/13 04:06:21;;;;;;;1.52;1.17;;;8.40;99.90;;;;;;6232461;23;20249;-76
2022/09/13 04:08:47;;;;;;;1.20;1.10;;;8.50;99.90;;;;;;6234427;23;20000;-76
2022/09/13 04:11:12;;;;;;;2.03;1.20;;;8.50;99.90;;;;;;6232360;23;20054;-76
2022/09/13 04:13:38;;;;;;;2.00;1.20;;;8.60;99.90;;;;;;6234892;23;20410;-76
2022/09/13 04:16:05;;;;;;;1.15;1.05;;;8.60;99.90;;;;;;6232875;23;20073;-76
2022/09/13 04:18:31;;;;;;;1.17;1.08;;;8.60;99.90;;;;;;6234920;23;20004;-76
2022/09/13 04:20:58;;;;;;;1.23;1.08;;;8.60;99.90;;;;;;6233647;22;20008;-76
2022/09/13 04:23:26;;;;;;;3.08;1.13;;;8.60;99.90;;;;;;6237359;23;20099;-76
2022/09/13 04:25:52;;;;;;;2.92;1.48;;;8.60;99.90;;;;;;6234415;22;20473;-76
2022/09/13 04:28:19;;;;;;;1.50;1.40;;;8.60;99.90;;;;;;6235753;23;20593;-76
2022/09/13 04:30:46;;;;;;;2.33;1.52;;;8.60;99.90;;;;;;6232612;23;20389;-76
2022/09/13 04:33:12;;;;;;;1.55;1.38;;;8.70;99.90;;;;;;6235239;23;20012;-75
2022/09/13 04:35:57;;;;;;;2.97;1.60;;;8.70;99.90;;;;;;6236167;23;20004;-76
2022/09/13 04:38:23;;;;;;;1.63;1.15;;;8.80;99.90;;;;;;6235597;23;20878;-76
2022/09/13 04:40:55;;;;;;;1.27;0.90;;;8.80;99.90;;;;;;6236466;23;20035;-76
2022/09/13 04:43:22;;;;;;;2.53;1.08;;;8.80;99.90;;;;;;6235755;23;20004;-76
2022/09/13 04:45:48;;;;;;;0.85;0.82;;;8.90;99.90;;;;;;6234768;23;20008;-81
2022/09/13 04:48:14;;;;;;;5.22;1.35;;;8.70;99.90;;;;;;6236556;23;20036;-79
2022/09/13 04:50:40;;;;;;;11.63;1.35;;;8.70;99.90;;;;;;6235297;23;20008;-75
2022/09/13 04:53:05;;;;;;;1.23;1.10;;;8.80;99.90;;;;;;6237456;23;20019;-81
2022/09/13 04:55:31;;;;;;;1.30;0.93;;;8.80;99.90;;;;;;6235413;23;20008;-82
2022/09/13 04:57:57;;;;;;;1.38;1.00;;;8.80;99.90;;;;;;6235527;23;20000;-81
2022/09/13 05:00:23;;;;;;;1.05;0.95;;;8.80;99.90;;;;;;6235317;23;20132;-80
2022/09/13 05:02:54;;;;;;;1.48;0.98;;;8.70;99.90;;;;;;6209895;23;20016;-81
2022/09/13 05:05:20;;;;;;;1.30;1.00;;;8.80;99.90;;;;;;6235166;23;20033;-81
2022/09/13 05:07:49;;;;;;;1.20;1.05;;;8.90;99.90;;;;;;6230550;23;20019;-81
2022/09/13 05:10:15;;;;;;;1.75;1.40;;;9.00;99.90;;;;;;6231102;23;20019;-79
2022/09/13 05:12:41;;;;;;;1.98;1.30;;;9.10;99.90;;;;;;6229986;23;20091;-79
2022/09/13 05:15:07;;;;;;;1.88;1.40;;;9.30;99.90;;;;;;6235883;23;20007;-80
2022/09/13 05:17:33;;;;;;;1.58;1.27;;;9.50;99.90;;;;;;6235940;23;20000;-80
2022/09/13 05:19:58;;;;;;;1.92;1.17;;;9.70;99.90;;;;;;6235501;23;20074;-79
2022/09/13 05:22:24;;;;;;;3.50;1.30;;;9.90;99.90;;;;;;6234280;23;20010;-81
2022/09/13 05:24:49;;;;;;;7.65;1.40;;;10.10;99.90;;;;;;6235446;23;20338;-79
2022/09/13 05:27:15;;;;;;;2.90;1.30;;;10.30;99.90;;;;;;6232385;23;20004;-77
2022/09/13 05:29:40;;;;;;;4.00;1.23;;;10.50;99.90;;;;;;6231924;23;20000;-77
2022/09/13 05:32:06;;;;;;;4.55;1.38;;;10.70;99.90;;;;;;6233493;23;20008;-78
2022/09/13 05:34:32;;;;;;;3.03;1.40;;;10.90;99.90;;;;;;6234125;23;20012;-78
2022/09/13 05:36:57;;;;;;;3.47;1.70;;;11.10;99.90;;;;;;6237641;23;20381;-78
2022/09/13 05:39:23;;;;;;;2.08;1.35;;;11.30;99.90;;;;;;6233215;23;20000;-78
2022/09/13 05:41:49;;;;;;;4.65;1.65;;;11.50;99.90;;;;;;6227843;23;20095;-79
2022/09/13 05:44:15;;;;;;;1.88;1.58;;;11.80;99.90;;;;;;6234867;23;20004;-79
2022/09/13 05:46:41;;;;;;;2.08;1.70;;;12.00;99.90;;;;;;6210039;23;20008;-79
2022/09/13 05:49:07;;;;;;;5.97;1.63;;;12.00;99.90;;;;;;6237600;23;20039;-79
2022/09/13 05:51:32;;;;;;;3.97;1.58;;;12.10;99.90;;;;;;6235560;23;20016;-79
2022/09/13 05:53:58;;;;;;;2.30;1.50;;;12.10;99.90;;;;;;6236837;23;19996;-79
2022/09/13 05:56:27;;;;;;;1.73;1.30;;;12.30;99.90;;;;;;6235391;23;20012;-78
2022/09/13 05:58:54;;;;;;;3.30;1.45;;;12.60;99.90;;;;;;6237797;23;20031;-78
2022/09/13 06:01:22;;;;;;;1.33;1.23;;;12.90;99.90;;;;;;6234179;23;20008;-78
2022/09/13 06:03:52;;;;;;;2.63;1.00;;;13.10;99.90;;;;;;6235637;23;20007;-76
2022/09/13 06:06:18;;;;;;;1.48;1.17;;;13.30;99.90;;;;;;6236496;23;20272;-78
2022/09/13 06:08:44;;;;;;;1.15;0.93;;;13.50;99.90;;;;;;6235228;23;20000;-78
2022/09/13 06:11:12;;;;;;;1.63;1.00;;;13.60;99.90;;;;;;6234116;23;20023;-77
2022/09/13 06:13:38;;;;;;;1.30;1.17;;;13.70;99.90;;;;;;6235908;23;20011;-80
2022/09/13 06:16:08;;;;;;;2.83;1.40;;;13.80;99.90;;;;;;6235054;23;20004;-78
2022/09/13 06:18:34;;;;;;;3.20;1.35;;;14.10;99.90;;;;;;6236172;23;20221;-78
2022/09/13 06:21:16;;;;;;;4.38;1.23;;;14.30;99.90;;;;;;6236322;23;20042;-80
2022/09/13 06:23:46;;;;;;;1.60;1.10;;;14.50;99.90;;;;;;6235969;23;20001;-67
2022/09/13 06:26:14;;;;;;;3.58;1.45;;;14.70;99.90;;;;;;6235838;23;20004;-67
2022/09/13 06:28:40;;;;;;;1.45;1.13;;;14.80;99.90;;;;;;6235679;23;20032;-71
2022/09/13 06:31:11;;;;;;;1.55;1.02;;;14.70;99.90;;;;;;6236261;23;20012;-71
2022/09/13 06:33:39;;;;;;;1.75;1.10;;;14.70;99.90;;;;;;6233968;23;20043;-71
2022/09/13 06:36:10;;;;;;;1.73;1.45;;;14.90;99.90;;;;;;6234725;23;20008;-71
2022/09/13 06:38:36;;;;;;;5.03;1.30;;;15.10;99.90;;;;;;6236776;23;20433;-71
2022/09/13 06:41:04;;;;;;;1.40;1.30;;;15.30;99.90;;;;;;6234225;23;20005;-71
2022/09/13 06:43:30;;;;;;;4.20;1.45;;;15.40;99.90;;;;;;6233598;23;20015;-71
2022/09/13 06:46:05;;;;;;;2.60;1.17;;;15.60;99.90;;;;;;6235400;23;20438;-71
2022/09/13 06:48:35;;;;;;;1.33;1.13;;;15.90;99.90;;;;;;6237124;23;20586;-71
2022/09/13 06:51:03;;;;;;;4.55;1.20;;;16.10;99.90;;;;;;6235844;23;20351;-71
2022/09/13 06:53:29;;;;;;;3.50;1.40;;;16.30;99.90;;;;;;6234799;23;20011;-72
2022/09/13 06:56:27;;;;;;;2.03;1.17;;;16.60;99.90;;;;;;6235815;23;20004;-71
2022/09/13 06:58:58;;;;;;;3.15;0.98;;;16.80;99.90;;;;;;6227556;23;20015;-71
2022/09/13 07:01:27;;;;;;;3.50;1.40;;;17.00;99.90;;;;;;6231679;23;20235;-71
2022/09/13 07:04:01;;;;;;;1.35;1.05;;;17.20;99.90;;;;;;6231010;23;20066;-72
2022/09/13 07:06:30;;;;;;;3.08;1.15;;;17.40;99.90;;;;;;6205138;23;20448;-71
2022/09/13 07:08:58;;;;;;;1.65;1.00;;;17.60;99.90;;;;;;6235820;23;20108;-71
2022/09/13 07:11:27;;;;;;;2.35;1.17;;;17.70;99.90;;;;;;6235808;23;20012;-71
2022/09/13 07:13:55;;;;;;;2.28;1.00;;;17.80;99.90;;;;;;6235218;23;20039;-71
2022/09/13 07:16:23;;;;;;;1.75;1.02;;;18.00;99.90;;;;;;6234085;23;20576;-71
2022/09/13 07:19:06;;;;;;;0.95;0.80;;;18.10;99.90;;;;;;6235184;23;20020;-71
2022/09/13 07:21:34;;;;;;;2.35;0.93;;;18.20;99.90;;;;;;6236091;23;20039;-71
2022/09/13 07:24:00;;;;;;;0.98;0.95;;;18.30;99.90;;;;;;6235056;23;20383;-71
2022/09/13 07:26:27;;;;;;;1.58;1.10;;;18.40;99.90;;;;;;6235713;23;20040;-68
2022/09/13 07:28:55;;;;;;;4.15;0.90;;;18.50;99.90;;;;;;6234174;23;20538;-67
2022/09/13 07:31:26;;;;;;;3.40;1.08;;;18.60;99.90;;;;;;6231834;23;20105;-67
2022/09/13 07:33:57;;;;;;;1.58;1.10;;;18.70;99.90;;;;;;6221144;23;20012;-67
2022/09/13 07:36:23;;;;;;;3.00;0.93;;;18.90;99.90;;;;;;6235391;23;20039;-67
2022/09/13 07:38:49;;;;;;;1.80;1.08;;;19.00;99.90;;;;;;6235835;23;20032;-67
2022/09/13 07:41:17;;;;;;;1.55;0.90;;;19.10;99.90;;;;;;6231227;23;20595;-67
2022/09/13 07:43:43;;;;;;;1.42;1.10;;;19.30;99.90;;;;;;6231146;23;20669;-70
2022/09/13 07:46:11;;;;;;;5.90;1.10;;;19.30;99.40;;;;;;6229383;23;20464;-71
2022/09/13 07:48:39;;;;;;;1.70;1.00;;;19.30;99.50;;;;;;6229974;23;20004;-71
2022/09/13 07:51:07;;;;;;;1.67;0.98;;;19.30;99.90;;;;;;6230370;23;20085;-71
2022/09/13 07:53:34;;;;;;;1.00;0.90;;;19.50;98.70;;;;;;6233133;23;20007;-71
2022/09/13 07:56:02;;;;;;;0.90;0.82;;;19.50;99.00;;;;;;6231312;23;20000;-72
2022/09/13 07:58:28;;;;;;;1.45;0.95;;;19.70;98.50;;;;;;6227791;23;20008;-70
2022/09/13 08:01:03;;;;;;;2.97;0.90;;;19.70;97.90;;;;;;6231470;23;20549;-71
2022/09/13 08:03:29;;;;;;;3.15;0.70;;;19.80;96.70;;;;;;6236606;23;20385;-69
2022/09/13 08:05:55;;;;;;;3.83;0.80;;;19.80;97.00;;;;;;6235613;23;20004;-67
2022/09/13 08:08:21;;;;;;;4.20;1.10;;;19.80;96.10;;;;;;6235160;23;20062;-68
2022/09/13 08:10:46;;;;;;;1.50;0.90;;;19.70;96.10;;;;;;6236293;23;20016;-68
2022/09/13 08:13:14;;;;;;;1.38;0.90;;;19.70;95.70;;;;;;6234108;23;20003;-67
2022/09/13 08:15:40;;;;;;;0.88;0.73;;;19.70;95.50;;;;;;6218997;22;20020;-67
2022/09/13 08:18:05;;;;;;;1.20;1.00;;;19.80;96.10;;;;;;6234706;23;20011;-68
2022/09/13 08:20:35;;;;;;;1.08;0.82;;;20.00;95.90;;;;;;6232650;22;20102;-68
2022/09/13 08:23:01;;;;;;;0.80;0.80;;;20.00;95.80;;;;;;6233785;22;20007;-71
2022/09/13 08:25:26;;;;;;;3.72;0.95;;;20.10;94.70;;;;;;6234769;23;20000;-71
2022/09/13 08:27:52;;;;;;;1.10;0.90;;;20.10;94.60;;;;;;6233252;23;20011;-72
2022/09/13 08:30:18;;;;;;;1.75;0.85;;;20.10;94.50;;;;;;6233885;23;20009;-71
2022/09/13 08:32:43;;;;;;;2.28;1.00;;;20.10;93.70;;;;;;6231388;23;20051;-71
2022/09/13 08:35:09;;;;;;;2.78;1.00;;;20.10;94.50;;;;;;6232217;23;20008;-71
2022/09/13 08:37:34;;;;;;;4.22;1.00;;;20.10;94.10;;;;;;6232444;23;20004;-70
2022/09/13 08:40:00;;;;;;;2.15;0.90;;;20.10;93.10;;;;;;6235271;22;20303;-71
2022/09/13 08:42:48;;;;;;;1.13;0.85;;;20.10;93.70;;;;;;6233561;23;20004;-68
2022/09/13 08:45:14;;;;;;;2.67;0.90;;;20.10;93.90;;;;;;6232930;22;20031;-67
2022/09/13 08:47:48;;;;;;;2.97;0.90;;;20.20;93.60;;;;;;6231355;22;20004;-67
2022/09/13 08:50:25;;;;;;;2.47;0.80;;;20.20;94.20;;;;;;6229367;22;20342;-69
2022/09/13 08:53:14;;;;;;;0.98;0.88;;;20.30;93.50;;;;;;6230082;22;20031;-68
2022/09/13 08:55:51;;;;;;;1.50;0.88;;;20.30;94.20;;;;;;6232877;22;20000;-68
2022/09/13 08:58:33;;;;;;;2.65;1.02;;;20.40;93.90;;;;;;6232990;22;20039;-67
2022/09/13 09:01:28;;;;;;;1.27;1.15;;;20.40;93.30;;;;;;6230701;22;20000;-69
2022/09/13 09:04:14;;;;;;;1.77;0.90;;;20.50;92.50;;;;;;6233735;22;20004;-68
2022/09/13 09:06:41;;;;;;;0.88;0.65;;;20.40;92.40;;;;;;6235413;22;20004;-68
2022/09/13 09:09:14;;;;;;;0.82;0.65;;;20.40;92.20;;;;;;6233587;22;20024;-68
2022/09/13 09:11:44;;;;;;;5.25;0.98;;;20.40;91.50;;;;;;6235755;22;20012;-68
2022/09/13 09:14:34;;;;;;;1.35;1.15;;;20.40;92.10;;;;;;6232158;23;20000;-68
2022/09/13 09:17:05;;;;;;;1.38;0.73;;;20.60;91.60;;;;;;6234194;22;19996;-68
2022/09/13 09:19:39;;;;;;;2.58;0.90;;;20.60;91.70;;;;;;6233997;23;20015;-69
2022/09/13 09:22:15;;;;;;;4.68;0.75;;;20.70;91.30;;;;;;6233326;22;20007;-68
2022/09/13 09:24:46;;;;;;;0.68;0.60;;;20.80;91.60;;;;;;6231506;22;20075;-69
2022/09/13 09:27:17;;;;;;;0.98;0.73;;;20.90;91.00;;;;;;6232600;22;20047;-69
2022/09/13 09:29:45;;;;;;;1.00;0.70;;;20.90;90.60;;;;;;6234655;22;20004;-68
2022/09/13 09:32:43;;;;;;;2.03;0.80;;;20.80;89.90;;;;;;6232517;22;20276;-69
2022/09/13 09:35:43;;;;;;;3.72;1.00;;;20.80;90.20;;;;;;6234702;22;20011;-69
2022/09/13 09:38:31;;;;;;;2.05;0.82;;;20.90;91.70;;;;;;6234298;23;20008;-69
2022/09/13 09:41:09;;;;;;;1.42;0.80;;;21.10;89.30;;;;;;6236061;23;20011;-69
2022/09/13 09:43:57;;;;;;;12.27;1.05;;;21.10;89.60;;;;;;6235065;22;20391;-69
2022/09/13 09:46:28;;;;;;;1.48;0.82;;;21.20;90.50;;;;;;6231038;22;20495;-68
2022/09/13 09:49:01;;;;;;;1.25;0.75;;;21.20;90.70;;;;;;6236455;22;19996;-68
2022/09/13 09:51:27;;;;;;;3.83;0.90;;;21.20;88.50;;;;;;6236541;22;20043;-69
2022/09/13 09:54:01;;;;;;;2.58;0.93;;;21.10;88.40;;;;;;6236314;22;20027;-69
2022/09/13 09:56:32;;;;;;;1.58;0.80;;;21.20;90.30;;;;;;6233729;22;20008;-68
2022/09/13 09:58:58;;;;;;;4.15;0.90;;;21.20;89.20;;;;;;6235469;22;20008;-69
2022/09/13 10:01:24;;;;;;;2.38;1.30;;;21.20;89.50;;;;;;6235286;22;20460;-68
2022/09/13 10:04:07;;;;;;;1.45;0.90;;;21.20;90.00;;;;;;6231029;22;20004;-69
2022/09/13 10:06:35;;;;;;;1.17;0.98;;;21.20;88.80;;;;;;6231009;22;20042;-68
2022/09/13 10:09:04;;;;;;;1.92;1.02;;;21.10;89.00;;;;;;6232368;22;20000;-69
2022/09/13 10:11:43;;;;;;;2.28;0.98;;;21.20;89.30;;;;;;6234428;22;20040;-69
2022/09/13 10:14:40;;;;;;;1.13;0.95;;;21.20;89.60;;;;;;6234976;22;20314;-69
2022/09/13 10:17:25;;;;;;;1.60;1.05;;;21.20;88.70;;;;;;6237088;22;20032;-72
2022/09/13 10:19:51;;;;;;;2.90;1.15;;;21.30;88.10;;;;;;6238904;22;20228;-70
2022/09/13 10:22:17;;;;;;;2.10;0.93;;;21.20;88.90;;;;;;6240014;22;19996;-70
2022/09/13 10:24:43;;;;;;;1.08;0.70;;;21.30;90.00;;;;;;6241790;22;20000;-70
2022/09/13 10:27:22;;;;;;;1.88;0.70;;;21.30;87.80;;;;;;6241409;22;20061;-70
2022/09/13 10:29:55;;;;;;;2.70;1.17;;;21.40;88.80;;;;;;6244519;22;20004;-70
2022/09/13 10:32:21;;;;;;;1.38;0.73;;;21.40;85.30;;;;;;6242483;22;20024;-69
2022/09/13 10:34:49;;;;;;;0.70;0.70;;;21.40;86.90;;;;;;6239169;22;20094;-70
2022/09/13 10:37:35;;;;;;;1.40;0.90;;;21.50;87.90;;;;;;6236180;22;20004;-71
2022/09/13 10:40:07;;;;;;;1.45;0.80;;;21.60;90.00;;;;;;6236542;22;20024;-71
2022/09/13 10:42:33;;;;;;;1.15;0.90;;;21.70;88.80;;;;;;6237109;22;20032;-70
2022/09/13 10:45:05;;;;;;;1.02;0.80;;;21.70;85.90;;;;;;6236908;23;20000;-71
2022/09/13 10:47:38;;;;;;;0.60;0.60;;;21.60;87.20;;;;;;6238249;22;20008;-71
2022/09/13 10:50:26;;;;;;;3.30;1.20;;;21.60;87.00;;;;;;6236111;22;20018;-71
2022/09/13 10:52:57;;;;;;;2.78;0.90;;;21.70;85.70;;;;;;6237636;22;20015;-71
2022/09/13 10:55:30;;;;;;;0.70;0.68;;;21.60;84.40;;;;;;6237330;22;20000;-71
2022/09/13 10:58:16;;;;;;;0.98;0.52;;;21.50;84.70;;;;;;6235920;22;20070;-71
2022/09/13 11:00:56;;;;;;;3.67;0.73;;;21.40;84.70;;;;;;6236806;23;20050;-71
2022/09/13 11:03:40;;;;;;;1.40;0.80;;;21.30;83.80;;;;;;6236501;23;20008;-71
2022/09/13 11:06:48;;;;;;;1.77;0.80;;;21.30;83.10;;;;;;6234522;23;20420;-71
2022/09/13 11:09:33;;;;;;;3.17;0.70;;;21.30;82.10;;;;;;6236317;23;20007;-71
2022/09/13 11:12:24;;;;;;;6.05;1.80;;;21.50;84.60;;;;;;6235435;22;20095;-71
2022/09/13 11:14:49;;;;;;;2.30;0.90;;;21.50;84.00;;;;;;6236812;23;20365;-72
2022/09/13 11:17:29;;;;;;;1.30;0.77;;;21.60;84.20;;;;;;6236220;23;20058;-71
2022/09/13 11:20:26;;;;;;;0.90;0.70;;;21.70;81.90;;;;;;6236655;23;20461;-71
2022/09/13 11:23:09;;;;;;;0.90;0.80;;;21.80;82.00;;;;;;6235639;22;19996;-72
2022/09/13 11:25:46;;;;;;;1.20;0.75;;;21.80;81.40;;;;;;6237232;23;20071;-71
2022/09/13 11:28:38;;;;;;;1.65;0.90;;;21.80;82.00;;;;;;6236108;23;20079;-71
2022/09/13 11:31:20;;;;;;;1.45;0.80;;;22.00;80.50;;;;;;6236023;23;20036;-71
2022/09/13 11:34:04;;;;;;;3.33;1.38;;;22.00;79.00;;;;;;6236991;23;20047;-71
2022/09/13 11:37:03;;;;;;;0.50;0.50;;;22.10;77.90;;;;;;6236709;23;20000;-70
2022/09/13 11:39:47;;;;;;;1.08;0.68;;;22.20;77.00;;;;;;6235158;23;20004;-70
2022/09/13 11:42:45;;;;;;;0.60;0.60;;;22.30;80.40;;;;;;6236620;22;20000;-71
2022/09/13 11:45:28;;;;;;;0.60;0.55;;;22.50;79.80;;;;;;6209392;22;20008;-71
2022/09/13 11:48:21;;;;;;;0.93;0.68;;;22.80;80.40;;;;;;6235856;22;20000;-70
2022/09/13 11:51:05;;;;;;;2.17;0.65;;;22.90;78.80;;;;;;6236527;23;20095;-70
2022/09/13 11:53:51;;;;;;;0.75;0.65;;;22.90;78.90;;;;;;6236440;23;20063;-70
2022/09/13 11:56:43;;;;;;;1.20;0.73;;;22.80;77.50;;;;;;6235862;22;20519;-71
2022/09/13 11:59:39;;;;;;;1.67;0.75;;;22.60;77.70;;;;;;6236329;22;20126;-71
2022/09/13 12:02:34;;;;;;;2.53;0.90;;;22.70;79.20;;;;;;6236176;22;20004;-72
2022/09/13 12:05:20;;;;;;;2.33;0.65;;;22.70;77.90;;;;;;6235660;23;20012;-72
2022/09/13 12:07:48;;;;;;;2.70;0.70;;;22.70;75.00;;;;;;6235245;22;20034;-72
2022/09/13 12:10:19;;;;;;;2.25;0.60;;;22.80;75.50;;;;;;6235909;22;20058;-73
2022/09/13 12:12:49;;;;;;;2.80;0.70;;;22.80;75.30;;;;;;6235398;22;20034;-74
2022/09/13 12:15:20;;;;;;;0.60;0.60;;;22.80;77.00;;;;;;6235879;22;20031;-76
2022/09/13 12:17:53;;;;;;;0.98;0.77;;;22.80;76.60;;;;;;6236269;22;20008;-72
2022/09/13 12:20:46;;;;;;;0.70;0.70;;;22.80;71.00;;;;;;6235644;22;19997;-72
2022/09/13 12:23:22;;;;;;;2.58;0.90;;;22.60;74.00;;;;;;6235563;22;20039;-72
2022/09/13 12:25:54;;;;;;;3.55;0.90;;;22.60;75.30;;;;;;6237202;22;20058;-72
2022/09/13 12:28:45;;;;;;;1.50;0.73;;;22.70;78.00;;;;;;6234681;22;20007;-71
2022/09/13 12:31:18;;;;;;;1.48;0.73;;;22.80;74.10;;;;;;6221202;23;20016;-73
2022/09/13 12:33:44;;;;;;;0.70;0.70;;;22.80;78.40;;;;;;6236953;22;20051;-71
2022/09/13 12:36:30;;;;;;;1.45;0.82;;;22.80;75.00;;;;;;6235312;22;20008;-72
2022/09/13 12:39:30;;;;;;;0.80;0.80;;;22.80;76.20;;;;;;6237997;22;20004;-71
2022/09/13 12:42:31;;;;;;;0.63;0.63;;;22.80;72.40;;;;;;6171284;22;20372;-70
2022/09/13 12:45:12;;;;;;;3.00;0.80;;;22.70;72.20;;;;;;6237492;22;20004;-72
2022/09/13 12:47:56;;;;;;;0.60;0.60;;;22.60;74.30;;;;;;6236411;23;20004;-72
2022/09/13 12:50:40;;;;;;;1.17;0.82;;;22.70;73.70;;;;;;6235072;23;20016;-71
2022/09/13 12:53:43;;;;;;;1.10;0.70;;;22.80;73.30;;;;;;6237877;23;20031;-71
2022/09/13 12:56:24;;;;;;;0.75;0.75;;;22.80;74.70;;;;;;6237509;22;20004;-75
2022/09/13 12:59:40;;;;;;;1.15;0.60;;;22.90;74.80;;;;;;6238706;23;20004;-75
2022/09/13 13:02:22;;;;;;;1.00;0.70;;;23.00;71.10;;;;;;6170508;22;20004;-77
2022/09/13 13:04:56;;;;;;;2.92;0.93;;;23.00;72.00;;;;;;6236113;23;20425;-76
2022/09/13 13:07:22;;;;;;;0.80;0.80;;;23.00;74.60;;;;;;6235895;22;20469;-68
2022/09/13 13:09:51;;;;;;;0.93;0.75;;;23.00;74.40;;;;;;6237397;22;20004;-68
2022/09/13 13:12:32;;;;;;;1.38;0.90;;;23.10;73.40;;;;;;6236294;22;20083;-72
2022/09/13 13:15:19;;;;;;;1.80;0.90;;;23.00;73.40;;;;;;6235946;23;20015;-73
2022/09/13 13:17:47;;;;;;;1.38;0.80;;;23.00;76.10;;;;;;6175097;22;20015;-74
2022/09/13 13:20:44;;;;;;;1.27;0.90;;;23.20;77.80;;;;;;6235620;22;20452;-74
2022/09/13 13:23:35;;;;;;;1.15;0.90;;;23.30;72.90;;;;;;6234955;22;20000;-73
2022/09/13 13:26:07;;;;;;;0.80;0.70;;;23.30;71.70;;;;;;6237360;22;20008;-74